Time;durP1;ratioP1;P1;durP2;ratioP2;P2;SDS_P1;SDS_P2;PMS_P1;PMS_P2;Temp;Humidity;BMP_temperature;BMP_pressure;BME280_temperature;BME280_humidity;BME280_pressure;Samples;Min_cycle;Max_cycle;Signal;HPM_P1;HPM_P2
2021/04/12 00:00:10;;;;;;;3.05;1.48;;;;;;;26.86;19.29;98129.47;5058802;28;20102;-91
2021/04/12 00:02:46;;;;;;;5.53;1.52;;;;;;;27.06;18.97;98132.81;5046751;28;20434;-91
2021/04/12 00:05:27;;;;;;;5.60;1.67;;;;;;;27.20;19.02;98131.53;5066002;28;20036;-92
2021/04/12 00:07:58;;;;;;;6.95;2.05;;;;;;;27.22;19.07;98129.06;5071779;28;20032;-93
2021/04/12 00:10:34;;;;;;;;;;;;;;;26.51;20.00;98122.88;5061787;28;20532;-93
2021/04/12 00:13:20;;;;;;;3.40;2.03;;;;;;;26.62;19.81;98120.53;5067024;28;19928;-92
2021/04/12 00:15:52;;;;;;;3.50;2.05;;;;;;;26.77;19.46;98129.34;5046705;28;20127;-92
2021/04/12 00:18:33;;;;;;;4.65;2.08;;;;;;;26.73;19.36;98118.16;5065446;28;20032;-92
2021/04/12 00:21:10;;;;;;;3.37;2.07;;;;;;;26.92;19.36;98126.84;5068813;28;20041;-92
2021/04/12 00:23:51;;;;;;;2.97;1.67;;;;;;;27.07;19.10;98127.97;5072924;28;20035;-92
2021/04/12 00:26:29;;;;;;;3.53;1.75;;;;;;;27.13;18.76;98129.75;5061819;28;20470;-94
2021/04/12 00:29:10;;;;;;;2.75;1.92;;;;;;;27.04;19.13;98120.41;5061356;28;20082;-93
2021/04/12 00:32:00;;;;;;;3.08;1.65;;;;;;;26.92;19.13;98119.19;5061377;28;20031;-93
2021/04/12 00:35:04;;;;;;;2.47;1.70;;;;;;;26.88;19.33;98118.53;5071822;28;20033;-93
2021/04/12 00:37:51;;;;;;;2.95;1.85;;;;;;;26.84;19.24;98125.53;5063576;28;20500;-94
2021/04/12 00:40:54;;;;;;;2.03;1.63;;;;;;;26.80;19.01;98119.19;5067167;28;20044;-92
2021/04/12 00:43:24;;;;;;;2.97;1.95;;;;;;;26.95;19.07;98115.47;5066091;28;20040;-92
2021/04/12 00:46:11;;;;;;;3.38;1.65;;;;;;;26.78;19.26;98116.84;5077609;28;20075;-91
2021/04/12 00:48:55;;;;;;;4.00;1.73;;;;;;;26.47;19.37;98107.34;5067003;28;20468;-91
2021/04/12 00:52:19;;;;;;;3.80;2.15;;;;;;;26.57;19.62;98111.84;5072259;28;20028;-91
2021/04/12 00:55:04;;;;;;;2.25;1.85;;;;;;;25.97;20.05;98113.66;5012439;28;20092;-91
2021/04/12 00:57:40;;;;;;;2.90;1.70;;;;;;;26.49;19.48;98116.91;5065886;28;20028;-92
2021/04/12 01:00:22;;;;;;;3.40;1.65;;;;;;;26.69;19.10;98113.88;5068130;28;20043;-91
2021/04/12 01:02:55;;;;;;;2.58;1.58;;;;;;;26.97;18.88;98098.09;5050898;28;20040;-91
2021/04/12 01:05:24;;;;;;;1.58;1.10;;;;;;;27.22;18.60;98104.47;5061444;28;20380;-90
2021/04/12 01:08:21;;;;;;;2.72;1.77;;;;;;;27.42;18.42;98103.44;5069729;28;20484;-91
2021/04/12 01:11:10;;;;;;;4.13;1.45;;;;;;;27.10;18.61;98102.47;5069180;28;20033;-91
2021/04/12 01:13:51;;;;;;;1.90;1.30;;;;;;;27.02;18.62;98098.34;5043681;28;20059;-91
2021/04/12 01:16:33;;;;;;;3.88;1.67;;;;;;;26.96;18.86;98099.34;5081726;28;20040;-90
2021/04/12 01:19:26;;;;;;;2.38;1.50;;;;;;;27.10;18.49;98094.03;5094650;28;20400;-91
2021/04/12 01:22:29;;;;;;;6.13;2.00;;;;;;;27.14;18.49;98093.91;5081799;28;20549;-92
2021/04/12 01:25:46;;;;;;;1.65;1.20;;;;;;;27.02;18.71;98091.91;5083008;28;20032;-91
2021/04/12 01:28:50;;;;;;;2.55;1.33;;;;;;;27.14;18.42;98097.50;5088629;28;20371;-91
2021/04/12 01:31:53;;;;;;;2.38;1.27;;;;;;;26.82;18.91;98099.81;5086348;28;20032;-92
2021/04/12 01:34:38;;;;;;;1.90;1.25;;;;;;;27.02;18.72;98097.53;5071038;28;20016;-91
2021/04/12 01:37:25;;;;;;;3.70;1.45;;;;;;;26.46;19.31;98092.50;5078248;28;20037;-91
2021/04/12 01:40:41;;;;;;;2.42;1.58;;;;;;;26.23;19.57;98089.19;5090394;28;20032;-91
2021/04/12 01:43:18;;;;;;;2.58;1.65;;;;;;;26.55;19.06;98084.16;4990126;28;20041;-91
2021/04/12 01:45:58;;;;;;;2.92;1.90;;;;;;;26.14;19.53;98081.41;5085469;28;20040;-91
2021/04/12 01:48:37;;;;;;;2.60;1.73;;;;;;;26.00;19.70;98093.84;5089979;28;20119;-91
2021/04/12 01:51:18;;;;;;;2.33;1.40;;;;;;;26.07;19.45;98082.38;5093136;28;20043;-91
2021/04/12 01:54:13;;;;;;;1.73;1.25;;;;;;;25.81;19.80;98092.00;5082103;28;20032;-91
2021/04/12 01:57:07;;;;;;;1.50;1.13;;;;;;;26.31;19.23;98080.06;5082744;28;20078;-92
2021/04/12 02:00:12;;;;;;;2.53;1.20;;;;;;;26.01;19.27;98086.19;5086179;28;20032;-91
2021/04/12 02:02:57;;;;;;;2.95;1.85;;;;;;;26.12;19.39;98085.91;5091606;28;20032;-91
2021/04/12 02:06:00;;;;;;;2.40;1.08;;;;;;;26.37;18.97;98083.13;5064452;28;20486;-91
2021/04/12 02:09:03;;;;;;;1.90;1.33;;;;;;;26.45;18.59;98085.25;5091035;28;20028;-90
2021/04/12 02:11:34;;;;;;;3.17;1.40;;;;;;;26.26;18.83;98082.66;5081785;28;20083;-91
2021/04/12 02:14:30;;;;;;;1.58;1.02;;;;;;;26.41;18.52;98078.97;5076507;28;20127;-91
2021/04/12 02:17:14;;;;;;;4.00;1.67;;;;;;;26.68;18.39;98087.75;5086283;28;20044;-91
2021/04/12 02:20:08;;;;;;;3.58;1.38;;;;;;;26.57;18.62;98080.88;5095065;28;20387;-91
2021/04/12 02:22:59;;;;;;;1.42;1.17;;;;;;;26.43;18.50;98089.78;5090833;28;20512;-91
2021/04/12 02:25:32;;;;;;;2.03;1.13;;;;;;;26.04;19.18;98083.25;5091990;28;20111;-91
2021/04/12 02:28:28;;;;;;;1.35;1.10;;;;;;;26.31;18.88;98080.06;5091772;28;20040;-90
2021/04/12 02:31:23;;;;;;;4.05;1.65;;;;;;;25.75;19.43;98079.72;5091516;28;20036;-91
2021/04/12 02:34:30;;;;;;;2.25;1.15;;;;;;;25.77;19.50;98073.63;5096441;28;20051;-92
2021/04/12 02:37:13;;;;;;;2.67;1.45;;;;;;;25.50;20.20;98071.19;5089612;28;20032;-92
2021/04/12 02:40:02;;;;;;;1.20;1.10;;;;;;;26.14;19.42;98064.50;5085102;28;20032;-92
2021/04/12 02:42:55;;;;;;;1.15;0.95;;;;;;;26.34;19.25;98067.94;5095577;28;20040;-91
2021/04/12 02:45:40;;;;;;;1.48;1.20;;;;;;;26.10;18.86;98069.47;5103579;28;20110;-91
2021/04/12 02:48:18;;;;;;;2.70;1.17;;;;;;;26.25;18.97;98061.38;5089982;28;20031;-91
2021/04/12 02:50:58;;;;;;;2.58;1.50;;;;;;;26.35;18.81;98066.66;5092685;28;20564;-91
2021/04/12 02:53:30;;;;;;;2.00;0.95;;;;;;;26.36;18.76;98065.44;5093546;28;20047;-91
2021/04/12 02:56:25;;;;;;;2.80;1.30;;;;;;;26.56;18.42;98066.00;5093409;28;20044;-91
2021/04/12 02:59:10;;;;;;;1.63;1.17;;;;;;;26.67;17.99;98060.84;5074536;28;20047;-91
2021/04/12 03:02:10;;;;;;;1.30;1.20;;;;;;;26.73;18.34;98067.47;5090159;28;20064;-91
2021/04/12 03:04:56;;;;;;;1.10;0.90;;;;;;;26.80;18.12;98065.66;5089927;28;20089;-91
2021/04/12 03:07:46;;;;;;;1.35;1.05;;;;;;;26.28;18.87;98066.91;5095410;28;20036;-90
2021/04/12 03:10:39;;;;;;;1.95;1.05;;;;;;;26.86;18.18;98069.50;5099833;28;20050;-90
2021/04/12 03:13:43;;;;;;;1.98;1.42;;;;;;;26.91;18.21;98066.13;5098853;28;20038;-91
2021/04/12 03:16:27;;;;;;;2.05;1.00;;;;;;;26.92;17.83;98065.66;5096179;28;20373;-90
2021/04/12 03:19:19;;;;;;;1.60;1.20;;;;;;;26.54;18.47;98059.25;5091923;28;20357;-91
2021/04/12 03:22:06;;;;;;;2.78;1.15;;;;;;;26.20;18.68;98064.75;5095939;28;20036;-91
2021/04/12 03:25:01;;;;;;;1.65;1.02;;;;;;;25.84;19.29;98073.44;5087894;28;20503;-92
2021/04/12 03:27:55;;;;;;;2.35;1.52;;;;;;;25.51;19.52;98074.81;5107188;28;20036;-91
2021/04/12 03:30:41;;;;;;;3.05;1.60;;;;;;;25.50;19.34;98067.59;5098194;28;20040;-91
2021/04/12 03:33:19;;;;;;;2.22;1.00;;;;;;;25.24;19.74;98072.28;5095875;28;20039;-91
2021/04/12 03:35:45;;;;;;;2.03;1.63;;;;;;;25.16;19.90;98066.06;5094044;28;20032;-91
2021/04/12 03:38:40;;;;;;;3.42;2.20;;;;;;;25.26;19.63;98065.00;5095228;28;20037;-91
2021/04/12 03:41:27;;;;;;;2.25;1.75;;;;;;;24.96;20.21;98064.59;5094189;28;20050;-91
2021/04/12 03:44:17;;;;;;;2.20;1.30;;;;;;;24.78;20.50;98065.06;5091298;28;20081;-91
2021/04/12 03:46:46;;;;;;;2.95;1.45;;;;;;;24.86;20.16;98060.03;5076573;28;20028;-91
2021/04/12 03:49:18;;;;;;;3.45;1.55;;;;;;;25.46;19.32;98061.28;5094802;28;20040;-91
2021/04/12 03:52:00;;;;;;;3.08;1.90;;;;;;;25.24;20.00;98056.22;5093174;28;20032;-91
2021/04/12 03:54:57;;;;;;;3.35;1.60;;;;;;;25.27;20.06;98062.97;5080028;28;20487;-91
2021/04/12 03:57:49;;;;;;;2.75;1.40;;;;;;;25.73;19.40;98067.34;5089028;28;20425;-90
2021/04/12 04:00:49;;;;;;;5.15;2.38;;;;;;;25.28;19.98;98065.34;5088898;28;20020;-90
2021/04/12 04:03:53;;;;;;;2.35;1.80;;;;;;;24.97;20.18;98058.53;5089829;28;20770;-90
2021/04/12 04:06:19;;;;;;;2.35;1.40;;;;;;;25.16;20.06;98062.44;5104966;28;20034;-90
2021/04/12 04:08:54;;;;;;;2.63;1.30;;;;;;;25.39;19.29;98059.44;5092730;28;20036;-90
2021/04/12 04:11:38;;;;;;;3.80;1.70;;;;;;;25.57;19.40;98062.56;5092464;28;20494;-90
2021/04/12 04:14:22;;;;;;;2.45;1.73;;;;;;;25.74;19.20;98058.44;5092399;28;20040;-91
2021/04/12 04:17:06;;;;;;;2.83;1.85;;;;;;;26.28;18.49;98055.63;5074358;28;20036;-90
2021/04/12 04:20:09;;;;;;;4.15;1.65;;;;;;;26.44;18.85;98052.69;5092601;28;20059;-90
2021/04/12 04:22:45;;;;;;;2.30;1.58;;;;;;;26.89;18.08;98054.50;5092404;28;20047;-90
2021/04/12 04:25:49;;;;;;;3.28;1.95;;;;;;;27.17;18.24;98050.69;5089557;28;20036;-91
2021/04/12 04:28:39;;;;;;;3.03;1.98;;;;;;;27.22;18.11;98056.56;5091155;28;20024;-91
2021/04/12 04:31:25;;;;;;;2.28;1.50;;;;;;;27.31;18.30;98058.66;5093822;28;20043;-90
2021/04/12 04:34:17;;;;;;;3.60;2.35;;;;;;;27.24;18.42;98053.28;5090919;28;20032;-91
2021/04/12 04:37:23;;;;;;;2.85;1.38;;;;;;;27.06;18.70;98058.75;5097721;28;20036;-91
2021/04/12 04:40:17;;;;;;;4.50;1.50;;;;;;;27.94;17.94;98062.00;5093341;28;20047;-91
2021/04/12 04:43:02;;;;;;;3.08;1.58;;;;;;;28.55;17.51;98069.72;5100624;28;20032;-90
2021/04/12 04:46:26;;;;;;;4.55;2.03;;;;;;;28.91;17.27;98060.59;5093114;28;20039;-91
2021/04/12 04:49:24;;;;;;;3.53;2.20;;;;;;;28.19;17.98;98063.91;5016352;28;20487;-91
2021/04/12 04:52:14;;;;;;;2.72;1.85;;;;;;;28.92;17.42;98073.47;5020902;28;20033;-91
2021/04/12 04:55:29;;;;;;;2.35;1.80;;;;;;;29.39;17.21;98084.41;5078885;28;20048;-91
2021/04/12 04:58:16;;;;;;;2.65;1.55;;;;;;;29.64;16.63;98080.50;5020786;28;20082;-92
2021/04/12 05:01:17;;;;;;;5.82;1.80;;;;;;;29.81;16.43;98091.06;5087362;28;20071;-93
2021/04/12 05:04:17;;;;;;;4.93;2.38;;;;;;;29.34;17.13;98082.22;4993608;28;20254;-92
2021/04/12 05:07:06;;;;;;;3.20;1.65;;;;;;;29.36;17.11;98086.13;5085239;28;20031;-91
2021/04/12 05:09:42;;;;;;;4.97;1.90;;;;;;;29.01;17.68;98081.97;5081766;28;20040;-90
2021/04/12 05:12:38;;;;;;;5.13;2.80;;;;;;;27.65;18.69;98084.06;5082943;28;20097;-90
2021/04/12 05:15:44;;;;;;;5.32;3.05;;;;;;;27.55;19.43;98093.69;5066707;28;20080;-91
2021/04/12 05:18:50;;;;;;;3.85;1.95;;;;;;;27.51;19.29;98084.56;5035758;28;20037;-91
2021/04/12 05:21:30;;;;;;;6.65;3.38;;;;;;;27.96;18.95;98090.53;5061355;28;20071;-92
2021/04/12 05:24:34;;;;;;;4.95;2.65;;;;;;;27.55;20.06;98087.25;5066525;28;20460;-94
2021/04/12 05:27:26;;;;;;;5.03;3.00;;;;;;;28.24;18.84;98091.53;5065602;28;20041;-92
2021/04/12 05:30:46;;;;;;;3.47;2.03;;;;;;;28.48;18.71;98088.97;5054463;28;20136;-91
2021/04/12 05:33:33;;;;;;;4.00;2.83;;;;;;;27.53;19.80;98089.75;4984325;28;20034;-93
2021/04/12 05:36:25;;;;;;;6.68;3.03;;;;;;;27.68;20.25;98091.59;5060367;28;20507;-91
2021/04/12 05:39:02;;;;;;;7.13;3.35;;;;;;;27.72;19.48;98089.44;5057269;28;20040;-91
2021/04/12 05:41:50;;;;;;;3.70;2.20;;;;;;;28.31;19.25;98090.47;5063392;28;20032;-89
2021/04/12 05:44:38;;;;;;;3.40;1.98;;;;;;;28.52;18.46;98081.94;5066493;28;20036;-89
2021/04/12 05:47:28;;;;;;;4.35;2.00;;;;;;;28.72;18.66;98081.59;5060759;28;20119;-89
2021/04/12 05:50:24;;;;;;;5.15;2.60;;;;;;;29.69;18.06;98085.50;5066652;28;20484;-90
2021/04/12 05:53:20;;;;;;;2.90;2.08;;;;;;;29.62;17.86;98080.16;5071237;28;20036;-90
2021/04/12 05:56:12;;;;;;;4.25;2.70;;;;;;;28.89;19.02;98088.56;5068391;28;20124;-89
2021/04/12 05:58:47;;;;;;;4.30;2.35;;;;;;;28.87;19.55;98085.38;5064864;28;20167;-90
2021/04/12 06:01:51;;;;;;;2.88;1.88;;;;;;;28.77;19.10;98083.81;5055649;28;20425;-90
2021/04/12 06:04:50;;;;;;;4.28;2.45;;;;;;;28.98;19.56;98082.13;5058947;28;20068;-90
2021/04/12 06:07:50;;;;;;;4.63;2.40;;;;;;;29.56;18.60;98082.88;5061037;28;20045;-90
2021/04/12 06:10:43;;;;;;;3.50;1.40;;;;;;;29.85;18.57;98086.00;5047321;28;20415;-90
2021/04/12 06:13:44;;;;;;;4.80;1.98;;;;;;;29.88;17.97;98072.94;5060916;28;20057;-90
2021/04/12 06:16:19;;;;;;;3.45;1.38;;;;;;;30.55;18.00;98081.16;5065707;28;20059;-90
2021/04/12 06:19:13;;;;;;;4.63;1.92;;;;;;;30.04;17.77;98081.91;5068273;28;20022;-89
2021/04/12 06:22:03;;;;;;;3.47;1.85;;;;;;;30.37;17.97;98086.88;5070643;28;20043;-90
2021/04/12 06:24:47;;;;;;;1.75;1.08;;;;;;;30.61;17.70;98090.56;5062760;28;20033;-90
2021/04/12 06:27:52;;;;;;;1.42;0.80;;;;;;;31.12;17.10;98082.00;5070582;28;20041;-90
2021/04/12 06:30:18;;;;;;;3.15;1.83;;;;;;;30.21;16.98;98090.03;5057295;28;20067;-90
2021/04/12 06:33:14;;;;;;;1.77;1.05;;;;;;;30.49;17.61;98095.19;5069376;28;20037;-90
2021/04/12 06:36:02;;;;;;;2.10;1.38;;;;;;;31.37;16.46;98090.00;5066166;28;20033;-89
2021/04/12 06:38:45;;;;;;;2.03;1.10;;;;;;;31.07;16.76;98091.16;5059395;28;20080;-90
2021/04/12 06:42:00;;;;;;;3.42;0.90;;;;;;;31.49;16.66;98094.69;5053082;28;20151;-90
2021/04/12 06:44:58;;;;;;;1.30;0.82;;;;;;;31.77;16.25;98092.41;5071625;28;20666;-90
2021/04/12 06:47:47;;;;;;;1.85;1.20;;;;;;;31.85;15.68;98088.72;5039816;28;20500;-90
2021/04/12 06:50:43;;;;;;;1.42;0.93;;;;;;;31.82;15.99;98094.56;5016484;28;20136;-90
2021/04/12 06:53:18;;;;;;;1.38;0.93;;;;;;;31.77;15.86;98098.09;5050050;28;20388;-90
2021/04/12 06:55:57;;;;;;;1.48;0.80;;;;;;;31.35;15.99;98099.03;5067441;28;20036;-90
2021/04/12 06:59:08;;;;;;;1.00;0.50;;;;;;;31.44;15.81;98103.88;5072205;28;20047;-90
2021/04/12 07:02:12;;;;;;;1.77;1.05;;;;;;;30.89;16.19;98108.28;5026889;28;20048;-90
2021/04/12 07:05:04;;;;;;;1.73;0.52;;;;;;;31.05;16.47;98105.03;5066931;28;20036;-91
2021/04/12 07:08:04;;;;;;;1.10;0.80;;;;;;;31.48;16.03;98109.38;5057697;28;20106;-90
2021/04/12 07:11:31;;;;;;;1.90;0.60;;;;;;;32.21;15.59;98112.41;5070409;28;20033;-90
2021/04/12 07:14:12;;;;;;;0.85;0.70;;;;;;;32.66;14.85;98101.31;4993007;28;20127;-90
2021/04/12 07:17:16;;;;;;;1.67;0.85;;;;;;;32.46;16.04;98106.91;5061454;28;20037;-90
2021/04/12 07:20:10;;;;;;;0.43;0.43;;;;;;;32.89;15.36;98108.13;5052030;28;20033;-90
2021/04/12 07:22:54;;;;;;;3.75;0.93;;;;;;;31.81;15.46;98110.06;5063942;28;20367;-90
2021/04/12 07:25:57;;;;;;;0.70;0.70;;;;;;;31.48;16.16;98098.81;5072529;28;20396;-91
2021/04/12 07:29:07;;;;;;;1.65;0.60;;;;;;;32.12;16.66;98104.72;5065876;28;20024;-90
2021/04/12 07:31:38;;;;;;;0.30;0.30;;;;;;;32.91;15.77;98113.34;4970521;28;20030;-91
2021/04/12 07:34:30;;;;;;;0.55;0.50;;;;;;;33.33;14.51;98108.00;5044691;28;20063;-91
2021/04/12 07:37:05;;;;;;;0.60;0.47;;;;;;;33.49;14.79;98107.47;5071018;28;20060;-89
2021/04/12 07:40:14;;;;;;;0.40;0.40;;;;;;;33.70;13.92;98105.44;5065818;28;20040;-89
2021/04/12 07:42:59;;;;;;;0.98;0.47;;;;;;;33.84;15.14;98108.16;5070154;28;20033;-90
2021/04/12 07:45:25;;;;;;;1.48;0.50;;;;;;;33.84;14.37;98107.41;5066451;28;20054;-91
2021/04/12 07:47:57;;;;;;;1.35;0.60;;;;;;;33.40;14.08;98108.38;5058433;28;20037;-91
2021/04/12 07:50:42;;;;;;;3.05;0.90;;;;;;;30.09;17.28;98115.25;5065882;28;20496;-88
2021/04/12 07:53:22;;;;;;;0.80;0.50;;;;;;;31.02;15.73;98111.66;5068919;28;20024;-89
2021/04/12 07:56:19;;;;;;;2.28;0.63;;;;;;;32.46;15.61;98098.38;5065229;28;20039;-92
2021/04/12 07:59:06;;;;;;;1.70;0.70;;;;;;;31.54;16.10;98090.38;5061860;28;20090;-91
2021/04/12 08:02:10;;;;;;;0.47;0.47;;;;;;;32.58;16.53;98099.38;5057245;28;20036;-89
2021/04/12 08:04:51;;;;;;;1.20;0.60;;;;;;;33.47;15.53;98101.47;5048380;28;20037;-90
2021/04/12 08:07:42;;;;;;;0.52;0.50;;;;;;;33.60;14.88;98092.63;5054499;28;20480;-92
2021/04/12 08:10:26;;;;;;;0.30;0.30;;;;;;;34.29;14.64;98100.91;5044793;28;20040;-89
2021/04/12 08:13:30;;;;;;;0.82;0.50;;;;;;;34.41;14.53;98096.09;5062229;28;20051;-90
2021/04/12 08:16:05;;;;;;;0.57;0.40;;;;;;;34.14;13.73;98097.41;5061335;28;20057;-90
2021/04/12 08:18:34;;;;;;;0.45;0.40;;;;;;;33.76;14.36;98092.03;5057106;28;20040;-90
2021/04/12 08:21:41;;;;;;;1.02;0.57;;;;;;;32.96;13.68;98089.88;5070632;28;20037;-90
2021/04/12 08:24:35;;;;;;;1.02;0.52;;;;;;;31.74;16.54;98094.16;5025877;28;20519;-90
2021/04/12 08:27:44;;;;;;;1.92;0.45;;;;;;;31.77;16.27;98103.75;5066688;28;20067;-89
2021/04/12 08:30:10;;;;;;;0.60;0.30;;;;;;;32.72;15.38;98098.56;5061748;28;20037;-90
2021/04/12 08:33:14;;;;;;;2.08;0.50;;;;;;;33.31;14.56;98102.03;5062611;28;20033;-92
2021/04/12 08:36:17;;;;;;;0.32;0.30;;;;;;;33.66;14.90;98099.16;5044177;28;20522;-89
2021/04/12 08:39:04;;;;;;;1.42;0.60;;;;;;;33.36;15.18;98102.13;5059599;28;20484;-90
2021/04/12 08:42:02;;;;;;;0.52;0.52;;;;;;;32.54;15.91;98095.94;5066556;28;20040;-90
2021/04/12 08:44:28;;;;;;;1.23;0.80;;;;;;;32.04;16.42;98101.47;5042989;28;20036;-91
2021/04/12 08:47:16;;;;;;;1.65;0.40;;;;;;;32.75;15.71;98104.03;5068060;28;20039;-91
2021/04/12 08:50:33;;;;;;;0.57;0.50;;;;;;;33.50;15.22;98105.38;5058261;28;20033;-90
2021/04/12 08:53:30;;;;;;;1.85;0.60;;;;;;;33.32;14.56;98101.56;4961408;28;20477;-90
2021/04/12 08:56:18;;;;;;;0.57;0.50;;;;;;;33.49;15.13;98103.84;5055434;28;20025;-90
2021/04/12 08:58:56;;;;;;;0.43;0.30;;;;;;;33.91;14.67;98109.81;5062247;28;20020;-94
2021/04/12 09:01:56;;;;;;;1.33;0.30;;;;;;;34.13;14.06;98104.38;5052678;28;20044;-90
2021/04/12 09:04:58;;;;;;;0.43;0.35;;;;;;;33.99;13.89;98105.22;5070540;28;20028;-91
2021/04/12 09:07:45;;;;;;;0.30;0.30;;;;;;;34.05;14.36;98111.81;5059942;28;20123;-91
2021/04/12 09:10:36;;;;;;;0.73;0.60;;;;;;;34.01;13.64;98111.22;5062251;28;20048;-91
2021/04/12 09:13:52;;;;;;;0.55;0.55;;;;;;;33.93;13.45;98102.34;5061611;28;20047;-90
2021/04/12 09:16:32;;;;;;;0.57;0.50;;;;;;;33.77;14.68;98107.84;5001885;28;20110;-90
2021/04/12 09:19:12;;;;;;;1.10;0.82;;;;;;;33.91;13.95;98112.66;5067135;28;20045;-91
2021/04/12 09:22:03;;;;;;;0.85;0.60;;;;;;;33.53;14.55;98112.97;5065087;28;20116;-90
2021/04/12 09:25:22;;;;;;;0.47;0.40;;;;;;;33.57;15.08;98116.38;5046761;28;20536;-90
2021/04/12 09:28:23;;;;;;;0.70;0.60;;;;;;;33.18;15.00;98124.38;5005150;28;20433;-92
2021/04/12 09:31:31;;;;;;;2.15;1.02;;;;;;;30.46;17.14;98124.47;4982411;28;20042;-90
2021/04/12 09:34:34;;;;;;;1.65;1.30;;;;;;;28.34;20.05;98121.41;5048602;28;20704;-89
2021/04/12 09:37:31;;;;;;;2.22;1.23;;;;;;;28.43;20.18;98120.66;5017447;28;20049;-90
2021/04/12 09:40:16;;;;;;;3.88;1.33;;;;;;;27.43;20.88;98114.25;5016789;28;20052;-89
2021/04/12 09:42:42;;;;;;;4.35;1.33;;;;;;;27.01;22.17;98113.66;5070915;28;20032;-92
2021/04/12 09:45:38;;;;;;;6.85;2.20;;;;;;;26.64;22.25;98120.88;5044844;28;20035;-89
2021/04/12 09:48:36;;;;;;;3.22;1.50;;;;;;;26.28;21.95;98117.56;5058057;28;20036;-89
2021/04/12 09:51:27;;;;;;;3.83;1.45;;;;;;;26.82;21.97;98114.69;5068290;28;20108;-91
2021/04/12 09:54:32;;;;;;;6.30;2.00;;;;;;;26.35;22.73;98114.53;5068586;28;20074;-91
2021/04/12 09:57:39;;;;;;;4.43;1.70;;;;;;;26.22;22.29;98118.56;5061551;28;20496;-91
2021/04/12 10:00:39;;;;;;;4.68;1.40;;;;;;;25.87;22.63;98123.97;5048551;28;20042;-91
2021/04/12 10:03:30;;;;;;;5.03;2.20;;;;;;;25.74;22.99;98125.19;5059723;28;20045;-88
2021/04/12 10:06:35;;;;;;;2.38;1.38;;;;;;;26.50;22.07;98123.34;5049484;28;20519;-91
2021/04/12 10:09:35;;;;;;;3.17;1.63;;;;;;;25.89;21.82;98129.94;5065915;28;20075;-92
2021/04/12 10:12:07;;;;;;;5.13;1.90;;;;;;;25.78;22.44;98132.28;5070312;28;20036;-93
2021/04/12 10:14:44;;;;;;;3.88;1.63;;;;;;;25.54;22.69;98127.31;5045979;28;20044;-92
2021/04/12 10:17:53;;;;;;;2.47;1.20;;;;;;;26.48;22.57;98128.63;5058266;28;20037;-93
2021/04/12 10:20:47;;;;;;;3.40;1.30;;;;;;;26.69;21.52;98123.13;4968314;28;20038;-92
2021/04/12 10:23:20;;;;;;;2.38;1.27;;;;;;;26.52;21.43;98126.50;4959473;28;20054;-92
2021/04/12 10:26:02;;;;;;;2.25;1.10;;;;;;;27.75;20.25;98125.19;5035497;28;20111;-90
2021/04/12 10:28:33;;;;;;;4.70;1.33;;;;;;;28.78;19.78;98124.16;5052230;28;20127;-93
2021/04/12 10:31:03;;;;;;;2.13;1.27;;;;;;;28.42;20.12;98136.03;5068077;28;20041;-93
2021/04/12 10:33:42;;;;;;;3.80;1.35;;;;;;;28.36;19.93;98126.56;5062462;28;20041;-90
2021/04/12 10:36:35;;;;;;;6.85;1.70;;;;;;;27.24;21.23;98126.56;5052256;28;20082;-88
2021/04/12 10:39:10;;;;;;;4.10;1.35;;;;;;;26.46;22.61;98128.28;5007480;28;20045;-88
2021/04/12 10:41:48;;;;;;;4.65;2.05;;;;;;;26.06;23.68;98139.13;5058680;28;20488;-86
2021/04/12 10:44:29;;;;;;;4.88;1.70;;;;;;;27.60;21.84;98143.09;5033813;28;20135;-88
2021/04/12 10:47:14;;;;;;;5.55;2.28;;;;;;;25.89;23.34;98141.19;5064921;28;20096;-87
2021/04/12 10:49:43;;;;;;;3.42;1.65;;;;;;;27.84;21.50;98130.13;5060094;28;20554;-92
2021/04/12 10:52:22;;;;;;;1.50;1.25;;;;;;;27.61;21.27;98139.03;5041941;28;20032;-92
2021/04/12 10:55:09;;;;;;;2.85;1.20;;;;;;;27.45;20.75;98137.16;5054244;28;20108;-92
2021/04/12 10:57:42;;;;;;;3.63;1.60;;;;;;;27.58;20.61;98140.72;5062092;28;20051;-92
2021/04/12 11:00:29;;;;;;;2.40;1.33;;;;;;;28.24;20.09;98141.59;5061260;28;20036;-92
2021/04/12 11:03:07;;;;;;;2.50;1.30;;;;;;;26.63;22.47;98139.00;5061584;28;20033;-93
2021/04/12 11:05:35;;;;;;;3.20;1.27;;;;;;;28.50;20.64;98137.31;5048004;28;20550;-90
2021/04/12 11:08:10;;;;;;;1.33;0.90;;;;;;;28.21;19.80;98145.31;5063833;28;20083;-90
2021/04/12 11:10:54;;;;;;;2.33;1.40;;;;;;;27.11;20.32;98139.91;5063618;28;20033;-90
2021/04/12 11:13:39;;;;;;;2.65;1.25;;;;;;;27.20;19.88;98135.16;5061217;28;20477;-90
2021/04/12 11:16:26;;;;;;;2.05;0.93;;;;;;;28.17;19.56;98141.84;5046070;28;20162;-91
2021/04/12 11:19:21;;;;;;;1.40;0.85;;;;;;;28.54;19.26;98138.75;5057305;28;20106;-90
2021/04/12 11:22:19;;;;;;;2.45;1.02;;;;;;;29.10;18.90;98137.78;5053542;28;20175;-89
2021/04/12 11:25:04;;;;;;;1.40;0.90;;;;;;;29.67;18.45;98144.63;5059203;28;20032;-90
2021/04/12 11:27:53;;;;;;;1.45;0.80;;;;;;;29.87;18.36;98153.50;5061522;28;20476;-90
2021/04/12 11:30:27;;;;;;;0.90;0.80;;;;;;;29.83;18.22;98152.84;5060782;28;20120;-90
2021/04/12 11:33:16;;;;;;;2.70;1.10;;;;;;;29.86;18.11;98143.41;5060382;28;20035;-89
2021/04/12 11:36:16;;;;;;;1.42;1.00;;;;;;;30.15;17.81;98145.78;5059699;28;20063;-90
2021/04/12 11:39:19;;;;;;;2.65;1.63;;;;;;;29.82;18.37;98145.63;5063107;28;20119;-91
2021/04/12 11:41:53;;;;;;;1.73;1.00;;;;;;;30.07;18.73;98148.13;5032998;28;20045;-90
2021/04/12 11:44:38;;;;;;;2.10;1.15;;;;;;;30.15;17.54;98157.09;5062773;28;20488;-90
2021/04/12 11:47:36;;;;;;;1.00;0.60;;;;;;;30.72;17.75;98158.88;5059004;28;20560;-90
2021/04/12 11:50:50;;;;;;;2.33;0.90;;;;;;;32.48;15.77;98149.84;5060641;28;20028;-88
2021/04/12 11:53:56;;;;;;;4.00;1.10;;;;;;;31.69;16.27;98148.00;5044110;28;20036;-89
2021/04/12 11:56:40;;;;;;;1.45;0.77;;;;;;;30.41;16.96;98161.19;5060421;28;20064;-87
2021/04/12 11:59:17;;;;;;;1.65;1.10;;;;;;;30.27;17.75;98153.31;5032214;28;20033;-90
2021/04/12 12:01:52;;;;;;;2.30;1.30;;;;;;;31.82;16.20;98143.63;5038236;28;20063;-89
2021/04/12 12:04:42;;;;;;;2.75;1.25;;;;;;;32.18;15.65;98145.41;5066111;28;20021;-89
2021/04/12 12:07:41;;;;;;;0.70;0.70;;;;;;;33.20;15.66;98151.06;5070520;28;20028;-89
2021/04/12 12:10:16;;;;;;;1.80;1.27;;;;;;;33.60;14.99;98147.50;5060613;28;20024;-89
2021/04/12 12:13:13;;;;;;;1.50;0.90;;;;;;;34.69;15.06;98148.47;5060160;28;20056;-89
2021/04/12 12:16:03;;;;;;;2.28;0.93;;;;;;;34.64;14.67;98147.16;5064159;28;20049;-91
2021/04/12 12:18:35;;;;;;;2.15;1.20;;;;;;;33.57;15.07;98139.94;5060316;28;20041;-89
2021/04/12 12:21:27;;;;;;;1.55;1.10;;;;;;;33.29;15.19;98153.00;5048952;28;20048;-90
2021/04/12 12:24:12;;;;;;;1.17;0.88;;;;;;;34.77;14.86;98149.59;5061856;28;20481;-89
2021/04/12 12:26:50;;;;;;;1.45;1.00;;;;;;;34.72;14.65;98147.47;5059851;28;20068;-88
2021/04/12 12:29:19;;;;;;;1.33;1.10;;;;;;;34.17;13.61;98147.69;5062381;28;20436;-89
2021/04/12 12:32:14;;;;;;;2.65;1.27;;;;;;;33.05;15.80;98150.31;5071221;28;20108;-89
2021/04/12 12:34:49;;;;;;;3.38;1.20;;;;;;;34.12;15.03;98139.88;5044404;28;20068;-88
2021/04/12 12:37:53;;;;;;;2.97;0.95;;;;;;;34.50;14.38;98141.53;5050346;28;20488;-88
2021/04/12 12:40:24;;;;;;;1.45;1.33;;;;;;;33.13;15.83;98139.31;5067397;28;20508;-93
2021/04/12 12:43:03;;;;;;;2.10;1.55;;;;;;;32.51;15.21;98134.66;5066669;28;20056;-94
2021/04/12 12:45:32;;;;;;;2.20;1.20;;;;;;;33.07;15.87;98139.22;5065209;28;20028;-92
2021/04/12 12:48:03;;;;;;;1.40;0.80;;;;;;;34.61;15.25;98142.44;5053360;28;20611;-90
2021/04/12 12:50:41;;;;;;;2.05;1.00;;;;;;;35.24;13.87;98145.31;5062579;28;20040;-90
2021/04/12 12:53:19;;;;;;;1.63;0.95;;;;;;;33.34;15.18;98146.59;5060799;28;20031;-90
2021/04/12 12:55:52;;;;;;;1.23;0.70;;;;;;;34.08;14.59;98150.69;5067982;28;20056;-89
2021/04/12 12:58:21;;;;;;;2.20;1.00;;;;;;;34.24;13.33;98149.31;5059689;28;20025;-89
2021/04/12 13:00:51;;;;;;;1.27;0.90;;;;;;;32.56;16.17;98153.06;5062836;28;20158;-90
2021/04/12 13:03:19;;;;;;;2.05;1.20;;;;;;;31.13;17.31;98141.09;5064832;28;20074;-88
2021/04/12 13:05:48;;;;;;;2.08;1.10;;;;;;;31.68;16.52;98144.38;5061684;28;20052;-90
2021/04/12 13:08:36;;;;;;;1.27;0.80;;;;;;;33.13;15.63;98137.25;5065235;28;20040;-89
2021/04/12 13:11:03;;;;;;;1.98;1.77;;;;;;;31.96;16.70;98142.09;5046027;28;20623;-89
2021/04/12 13:13:36;;;;;;;2.13;1.17;;;;;;;30.68;18.29;98149.75;5062783;28;20055;-89